Farmington, NM (87401)

11:37 AM MST on February 07, 2016 (GMT -0700)
Butler and 23rd Street | | Change Station
CLOSE
Current Station
Personal Weather Station
Location: Farmington, NM
Elevation: 5500 ft
Nearby Weather Stations

Elev 5500 ft 36.75 °N, 108.20 °W | Updated 15 seconds ago

Clear
Clear
36.0 °F
Feels Like 33 °F
N
4.0
Wind Variable Wind from East
Gusts 9.0 mph

Today
High -- | Low -- °F
--% Chance of Precip.
Yesterday
High -- | Low -- °F
Precip. -- in
Pressure 30.56 in
Visibility 10.0 miles
Clouds Clear
Windchill 33 °F
Dew Point 20 °F
Humidity 51%
Rainfall 0.00 in
Snow Depth Not available.
7:09 AM 5:44 PM
Waning Crescent, 1% visible
METAR KFMN 071753Z 00000KT 10SM CLR M02/M08 A3044 RMK AO2 SLP346 T10171078 11011 21100 50008
Pressure 30.56 in
Visibility 10.0 miles
Clouds Clear
Windchill 33 °F
Dew Point 20 °F
Humidity 51%
Rainfall 0.00 in
Snow Depth Not available.
7:09 AM 5:44 PM
Waning Crescent, 1% visible
METAR KFMN 071753Z 00000KT 10SM CLR M02/M08 A3044 RMK AO2 SLP346 T10171078 11011 21100 50008

10-Day Weather Forecast

Almanac

Astronomy

Feb. 07, 2016 Rise Set
Actual Time
Civil Twilight
Nautical Twilight
Astronomical Twilight
Moon
Length of Visible Light
Length of Day
Tomorrow will be .
, % of the Moon is Illuminated

Today's Extremes

State Highs State Lows

Community

WunderPhotos

Upload Photos

1,891,280 photos uploaded!

WunderBlog® & News

Nearby

Air Quality

  Air Quality AQ Index Pollutant
Not available.

Snow Depth

Station Depth Elevation

Earthquake Activity

City Distance Mag. Time & Date
Minimum magnitude displayed is 2.5.

Coastal Water Temperatures

Place Temperature

Stations

Nearby Weather Stations

Station Location Temp. Windchill Dew Point Humidity Wind Precip. Elev Updated Type
                   

Watches & Warnings

There are currently no watches in effect.